sensor_id;sensor_type;location;lat;lon;timestamp;P1;durP1;ratioP1;P2;durP2;ratioP2
51718;SDS011;37795;53.236;5.704;2024-02-04T00:00:34;2.00;;;0.80;;
51718;SDS011;37795;53.236;5.704;2024-02-04T00:03:00;3.67;;;0.75;;
51718;SDS011;37795;53.236;5.704;2024-02-04T00:05:26;3.15;;;0.85;;
51718;SDS011;37795;53.236;5.704;2024-02-04T00:07:52;2.00;;;0.55;;
51718;SDS011;37795;53.236;5.704;2024-02-04T00:10:17;2.80;;;0.80;;
51718;SDS011;37795;53.236;5.704;2024-02-04T00:12:44;1.67;;;0.50;;
51718;SDS011;37795;53.236;5.704;2024-02-04T00:15:10;1.77;;;0.52;;
51718;SDS011;37795;53.236;5.704;2024-02-04T00:17:35;3.13;;;0.60;;
51718;SDS011;37795;53.236;5.704;2024-02-04T00:20:02;2.38;;;0.50;;
51718;SDS011;37795;53.236;5.704;2024-02-04T00:24:56;1.10;;;0.50;;
51718;SDS011;37795;53.236;5.704;2024-02-04T00:27:26;1.63;;;0.40;;
51718;SDS011;37795;53.236;5.704;2024-02-04T00:29:52;1.33;;;0.40;;
51718;SDS011;37795;53.236;5.704;2024-02-04T00:32:18;1.77;;;0.43;;
51718;SDS011;37795;53.236;5.704;2024-02-04T00:34:44;0.90;;;0.40;;
51718;SDS011;37795;53.236;5.704;2024-02-04T00:37:09;3.25;;;0.73;;
51718;SDS011;37795;53.236;5.704;2024-02-04T00:39:35;2.45;;;0.80;;
51718;SDS011;37795;53.236;5.704;2024-02-04T00:42:01;2.42;;;0.52;;
51718;SDS011;37795;53.236;5.704;2024-02-04T00:44:26;2.15;;;0.63;;
51718;SDS011;37795;53.236;5.704;2024-02-04T00:46:52;2.40;;;0.60;;
51718;SDS011;37795;53.236;5.704;2024-02-04T00:49:18;2.08;;;1.00;;
51718;SDS011;37795;53.236;5.704;2024-02-04T00:51:43;2.63;;;0.55;;
51718;SDS011;37795;53.236;5.704;2024-02-04T00:54:09;2.17;;;0.60;;
51718;SDS011;37795;53.236;5.704;2024-02-04T00:56:35;1.85;;;0.60;;
51718;SDS011;37795;53.236;5.704;2024-02-04T00:59:03;0.75;;;0.25;;
51718;SDS011;37795;53.236;5.704;2024-02-04T01:01:28;2.35;;;0.43;;
51718;SDS011;37795;53.236;5.704;2024-02-04T01:03:54;2.30;;;0.70;;
51718;SDS011;37795;53.236;5.704;2024-02-04T01:06:20;1.65;;;0.60;;
51718;SDS011;37795;53.236;5.704;2024-02-04T01:08:45;3.67;;;0.70;;
51718;SDS011;37795;53.236;5.704;2024-02-04T01:11:11;1.33;;;0.47;;
51718;SDS011;37795;53.236;5.704;2024-02-04T01:13:37;1.48;;;0.57;;
51718;SDS011;37795;53.236;5.704;2024-02-04T01:16:03;2.75;;;0.60;;
51718;SDS011;37795;53.236;5.704;2024-02-04T01:18:28;0.98;;;0.32;;
51718;SDS011;37795;53.236;5.704;2024-02-04T01:20:56;2.17;;;0.77;;
51718;SDS011;37795;53.236;5.704;2024-02-04T01:23:22;1.05;;;0.45;;
51718;SDS011;37795;53.236;5.704;2024-02-04T01:25:47;1.05;;;0.40;;
51718;SDS011;37795;53.236;5.704;2024-02-04T01:28:13;1.38;;;0.50;;
51718;SDS011;37795;53.236;5.704;2024-02-04T01:30:39;2.97;;;1.10;;
51718;SDS011;37795;53.236;5.704;2024-02-04T01:33:04;0.88;;;0.30;;
51718;SDS011;37795;53.236;5.704;2024-02-04T01:35:30;2.50;;;0.50;;
51718;SDS011;37795;53.236;5.704;2024-02-04T01:37:56;3.17;;;0.80;;
51718;SDS011;37795;53.236;5.704;2024-02-04T01:40:21;1.23;;;0.50;;
51718;SDS011;37795;53.236;5.704;2024-02-04T01:42:47;1.33;;;0.45;;
51718;SDS011;37795;53.236;5.704;2024-02-04T01:45:13;1.55;;;0.70;;
51718;SDS011;37795;53.236;5.704;2024-02-04T01:47:38;2.80;;;0.50;;
51718;SDS011;37795;53.236;5.704;2024-02-04T01:50:04;2.13;;;0.70;;
51718;SDS011;37795;53.236;5.704;2024-02-04T01:52:31;1.20;;;0.50;;
51718;SDS011;37795;53.236;5.704;2024-02-04T01:54:59;2.35;;;0.60;;
51718;SDS011;37795;53.236;5.704;2024-02-04T01:57:25;3.28;;;0.50;;
51718;SDS011;37795;53.236;5.704;2024-02-04T01:59:52;2.65;;;0.75;;
51718;SDS011;37795;53.236;5.704;2024-02-04T02:02:20;1.15;;;0.40;;
51718;SDS011;37795;53.236;5.704;2024-02-04T02:04:46;1.45;;;0.50;;
51718;SDS011;37795;53.236;5.704;2024-02-04T02:07:12;2.78;;;0.52;;
51718;SDS011;37795;53.236;5.704;2024-02-04T02:09:41;1.35;;;0.60;;
51718;SDS011;37795;53.236;5.704;2024-02-04T02:12:09;1.45;;;0.45;;
51718;SDS011;37795;53.236;5.704;2024-02-04T02:14:41;1.25;;;0.32;;
51718;SDS011;37795;53.236;5.704;2024-02-04T02:17:12;2.53;;;0.50;;
51718;SDS011;37795;53.236;5.704;2024-02-04T02:24:53;1.67;;;0.60;;
51718;SDS011;37795;53.236;5.704;2024-02-04T02:27:22;2.83;;;0.60;;
51718;SDS011;37795;53.236;5.704;2024-02-04T02:29:48;2.97;;;0.47;;
51718;SDS011;37795;53.236;5.704;2024-02-04T02:32:13;1.83;;;0.60;;
51718;SDS011;37795;53.236;5.704;2024-02-04T02:34:39;0.75;;;0.50;;
51718;SDS011;37795;53.236;5.704;2024-02-04T02:37:08;1.13;;;0.60;;
51718;SDS011;37795;53.236;5.704;2024-02-04T02:40:05;0.65;;;0.43;;
51718;SDS011;37795;53.236;5.704;2024-02-04T02:42:38;1.60;;;0.52;;
51718;SDS011;37795;53.236;5.704;2024-02-04T02:45:08;1.58;;;0.45;;
51718;SDS011;37795;53.236;5.704;2024-02-04T02:47:35;1.55;;;0.60;;
51718;SDS011;37795;53.236;5.704;2024-02-04T02:50:04;2.25;;;0.57;;
51718;SDS011;37795;53.236;5.704;2024-02-04T02:52:30;0.98;;;0.47;;
51718;SDS011;37795;53.236;5.704;2024-02-04T02:54:56;0.95;;;0.57;;
51718;SDS011;37795;53.236;5.704;2024-02-04T02:57:22;2.35;;;0.70;;
51718;SDS011;37795;53.236;5.704;2024-02-04T02:59:48;1.45;;;0.55;;
51718;SDS011;37795;53.236;5.704;2024-02-04T03:02:13;1.02;;;0.45;;
51718;SDS011;37795;53.236;5.704;2024-02-04T03:04:39;1.98;;;0.50;;
51718;SDS011;37795;53.236;5.704;2024-02-04T03:07:05;1.92;;;0.60;;
51718;SDS011;37795;53.236;5.704;2024-02-04T03:09:32;1.30;;;0.43;;
51718;SDS011;37795;53.236;5.704;2024-02-04T03:11:58;1.13;;;0.85;;
51718;SDS011;37795;53.236;5.704;2024-02-04T03:14:24;1.70;;;0.40;;
51718;SDS011;37795;53.236;5.704;2024-02-04T03:16:50;1.50;;;0.50;;
51718;SDS011;37795;53.236;5.704;2024-02-04T03:19:15;0.70;;;0.30;;
51718;SDS011;37795;53.236;5.704;2024-02-04T03:21:41;1.70;;;0.30;;
51718;SDS011;37795;53.236;5.704;2024-02-04T03:24:07;1.15;;;0.40;;
51718;SDS011;37795;53.236;5.704;2024-02-04T03:26:32;1.33;;;0.40;;
51718;SDS011;37795;53.236;5.704;2024-02-04T03:28:58;1.52;;;0.60;;
51718;SDS011;37795;53.236;5.704;2024-02-04T03:31:24;1.63;;;0.65;;
51718;SDS011;37795;53.236;5.704;2024-02-04T03:33:50;1.88;;;0.80;;
51718;SDS011;37795;53.236;5.704;2024-02-04T03:36:18;2.00;;;0.40;;
51718;SDS011;37795;53.236;5.704;2024-02-04T03:38:44;2.60;;;0.60;;
51718;SDS011;37795;53.236;5.704;2024-02-04T03:41:11;1.20;;;0.40;;
51718;SDS011;37795;53.236;5.704;2024-02-04T03:43:36;1.73;;;0.60;;
51718;SDS011;37795;53.236;5.704;2024-02-04T03:46:02;1.08;;;0.40;;
51718;SDS011;37795;53.236;5.704;2024-02-04T03:48:28;1.45;;;0.60;;
51718;SDS011;37795;53.236;5.704;2024-02-04T03:50:54;2.83;;;0.50;;
51718;SDS011;37795;53.236;5.704;2024-02-04T03:53:20;1.73;;;0.45;;
51718;SDS011;37795;53.236;5.704;2024-02-04T03:55:48;0.90;;;0.22;;
51718;SDS011;37795;53.236;5.704;2024-02-04T03:58:14;1.23;;;0.40;;
51718;SDS011;37795;53.236;5.704;2024-02-04T04:00:40;1.33;;;0.60;;
51718;SDS011;37795;53.236;5.704;2024-02-04T04:03:05;1.40;;;0.30;;
51718;SDS011;37795;53.236;5.704;2024-02-04T04:05:31;1.40;;;0.40;;
51718;SDS011;37795;53.236;5.704;2024-02-04T04:07:57;1.58;;;0.50;;
51718;SDS011;37795;53.236;5.704;2024-02-04T04:10:23;1.55;;;0.43;;
51718;SDS011;37795;53.236;5.704;2024-02-04T04:12:48;1.48;;;0.32;;
51718;SDS011;37795;53.236;5.704;2024-02-04T04:15:14;1.35;;;0.60;;
51718;SDS011;37795;53.236;5.704;2024-02-04T04:17:40;1.25;;;0.52;;
51718;SDS011;37795;53.236;5.704;2024-02-04T04:20:06;2.47;;;0.57;;
51718;SDS011;37795;53.236;5.704;2024-02-04T04:22:32;1.23;;;0.47;;
51718;SDS011;37795;53.236;5.704;2024-02-04T04:24:58;1.08;;;0.38;;
51718;SDS011;37795;53.236;5.704;2024-02-04T04:27:24;0.82;;;0.40;;
51718;SDS011;37795;53.236;5.704;2024-02-04T04:29:49;1.98;;;0.60;;
51718;SDS011;37795;53.236;5.704;2024-02-04T04:32:15;1.00;;;0.40;;
51718;SDS011;37795;53.236;5.704;2024-02-04T04:34:41;1.13;;;0.47;;
51718;SDS011;37795;53.236;5.704;2024-02-04T04:37:06;1.95;;;0.50;;
51718;SDS011;37795;53.236;5.704;2024-02-04T04:39:32;2.30;;;0.50;;
51718;SDS011;37795;53.236;5.704;2024-02-04T04:41:58;1.85;;;0.40;;
51718;SDS011;37795;53.236;5.704;2024-02-04T04:44:23;1.20;;;0.30;;
51718;SDS011;37795;53.236;5.704;2024-02-04T04:46:49;1.70;;;0.50;;
51718;SDS011;37795;53.236;5.704;2024-02-04T04:49:15;0.70;;;0.40;;
51718;SDS011;37795;53.236;5.704;2024-02-04T04:51:44;0.90;;;0.38;;
51718;SDS011;37795;53.236;5.704;2024-02-04T04:54:11;2.58;;;0.70;;
51718;SDS011;37795;53.236;5.704;2024-02-04T04:56:40;2.40;;;0.65;;
51718;SDS011;37795;53.236;5.704;2024-02-04T04:59:06;1.23;;;0.50;;
51718;SDS011;37795;53.236;5.704;2024-02-04T05:01:32;1.45;;;0.35;;
51718;SDS011;37795;53.236;5.704;2024-02-04T05:03:58;0.85;;;0.30;;
51718;SDS011;37795;53.236;5.704;2024-02-04T05:06:24;1.25;;;0.70;;
51718;SDS011;37795;53.236;5.704;2024-02-04T05:08:50;1.67;;;0.40;;
51718;SDS011;37795;53.236;5.704;2024-02-04T05:11:16;1.90;;;0.47;;
51718;SDS011;37795;53.236;5.704;2024-02-04T05:13:41;1.52;;;0.70;;
51718;SDS011;37795;53.236;5.704;2024-02-04T05:16:07;2.45;;;0.70;;
51718;SDS011;37795;53.236;5.704;2024-02-04T05:18:33;0.88;;;0.40;;
51718;SDS011;37795;53.236;5.704;2024-02-04T05:21:00;1.38;;;0.40;;
51718;SDS011;37795;53.236;5.704;2024-02-04T05:23:29;1.08;;;0.50;;
51718;SDS011;37795;53.236;5.704;2024-02-04T05:25:55;2.08;;;0.50;;
51718;SDS011;37795;53.236;5.704;2024-02-04T05:28:20;1.38;;;0.40;;
51718;SDS011;37795;53.236;5.704;2024-02-04T05:30:46;2.97;;;0.60;;
51718;SDS011;37795;53.236;5.704;2024-02-04T05:33:15;1.20;;;0.47;;
51718;SDS011;37795;53.236;5.704;2024-02-04T05:35:43;2.63;;;0.50;;
51718;SDS011;37795;53.236;5.704;2024-02-04T05:38:09;0.95;;;0.50;;
51718;SDS011;37795;53.236;5.704;2024-02-04T05:40:35;1.60;;;0.45;;
51718;SDS011;37795;53.236;5.704;2024-02-04T05:43:00;1.23;;;0.38;;
51718;SDS011;37795;53.236;5.704;2024-02-04T05:45:31;1.52;;;0.45;;
51718;SDS011;37795;53.236;5.704;2024-02-04T05:47:57;2.22;;;0.40;;
51718;SDS011;37795;53.236;5.704;2024-02-04T05:50:23;0.93;;;0.40;;
51718;SDS011;37795;53.236;5.704;2024-02-04T05:52:49;0.82;;;0.35;;
51718;SDS011;37795;53.236;5.704;2024-02-04T05:55:14;2.58;;;0.40;;
51718;SDS011;37795;53.236;5.704;2024-02-04T05:57:40;1.50;;;0.50;;
51718;SDS011;37795;53.236;5.704;2024-02-04T06:00:06;2.13;;;0.40;;
51718;SDS011;37795;53.236;5.704;2024-02-04T06:05:01;1.55;;;0.40;;
51718;SDS011;37795;53.236;5.704;2024-02-04T06:07:27;1.50;;;0.30;;
51718;SDS011;37795;53.236;5.704;2024-02-04T06:09:53;3.42;;;0.60;;
51718;SDS011;37795;53.236;5.704;2024-02-04T06:12:24;1.13;;;0.35;;
51718;SDS011;37795;53.236;5.704;2024-02-04T06:14:50;0.88;;;0.47;;
51718;SDS011;37795;53.236;5.704;2024-02-04T06:17:16;1.83;;;0.60;;
51718;SDS011;37795;53.236;5.704;2024-02-04T06:19:41;0.88;;;0.30;;
51718;SDS011;37795;53.236;5.704;2024-02-04T06:22:07;2.10;;;0.57;;
51718;SDS011;37795;53.236;5.704;2024-02-04T06:24:32;3.28;;;0.40;;
51718;SDS011;37795;53.236;5.704;2024-02-04T06:26:58;1.30;;;0.40;;
51718;SDS011;37795;53.236;5.704;2024-02-04T06:29:24;1.25;;;0.50;;
51718;SDS011;37795;53.236;5.704;2024-02-04T06:31:50;1.20;;;0.30;;
51718;SDS011;37795;53.236;5.704;2024-02-04T06:34:15;1.35;;;0.45;;
51718;SDS011;37795;53.236;5.704;2024-02-04T06:36:44;1.17;;;0.40;;
51718;SDS011;37795;53.236;5.704;2024-02-04T06:39:10;2.15;;;0.43;;
51718;SDS011;37795;53.236;5.704;2024-02-04T06:41:36;1.05;;;0.40;;
51718;SDS011;37795;53.236;5.704;2024-02-04T06:44:05;3.08;;;0.60;;
51718;SDS011;37795;53.236;5.704;2024-02-04T06:51:43;1.35;;;0.43;;
51718;SDS011;37795;53.236;5.704;2024-02-04T06:54:10;1.45;;;0.40;;
51718;SDS011;37795;53.236;5.704;2024-02-04T06:56:36;0.98;;;0.40;;
51718;SDS011;37795;53.236;5.704;2024-02-04T06:59:02;1.33;;;0.40;;
51718;SDS011;37795;53.236;5.704;2024-02-04T07:01:27;1.25;;;0.40;;
51718;SDS011;37795;53.236;5.704;2024-02-04T07:03:53;1.58;;;0.35;;
51718;SDS011;37795;53.236;5.704;2024-02-04T07:06:19;1.73;;;0.60;;
51718;SDS011;37795;53.236;5.704;2024-02-04T07:08:45;1.52;;;0.40;;
51718;SDS011;37795;53.236;5.704;2024-02-04T07:11:11;0.88;;;0.50;;
51718;SDS011;37795;53.236;5.704;2024-02-04T07:13:36;1.42;;;0.47;;
51718;SDS011;37795;53.236;5.704;2024-02-04T07:16:02;1.20;;;0.60;;
51718;SDS011;37795;53.236;5.704;2024-02-04T07:18:28;1.10;;;0.45;;
51718;SDS011;37795;53.236;5.704;2024-02-04T07:20:53;1.63;;;0.60;;
51718;SDS011;37795;53.236;5.704;2024-02-04T07:23:19;1.50;;;0.60;;
51718;SDS011;37795;53.236;5.704;2024-02-04T07:28:10;1.42;;;0.50;;
51718;SDS011;37795;53.236;5.704;2024-02-04T07:30:36;1.52;;;0.50;;
51718;SDS011;37795;53.236;5.704;2024-02-04T07:33:02;0.70;;;0.40;;
51718;SDS011;37795;53.236;5.704;2024-02-04T07:35:28;1.60;;;0.47;;
51718;SDS011;37795;53.236;5.704;2024-02-04T07:37:53;1.20;;;0.40;;
51718;SDS011;37795;53.236;5.704;2024-02-04T07:40:19;1.27;;;0.50;;
51718;SDS011;37795;53.236;5.704;2024-02-04T07:42:45;1.03;;;0.57;;
51718;SDS011;37795;53.236;5.704;2024-02-04T07:45:10;1.98;;;0.70;;
51718;SDS011;37795;53.236;5.704;2024-02-04T07:47:36;0.73;;;0.30;;
51718;SDS011;37795;53.236;5.704;2024-02-04T07:50:02;0.60;;;0.47;;
51718;SDS011;37795;53.236;5.704;2024-02-04T07:52:28;1.00;;;0.43;;
51718;SDS011;37795;53.236;5.704;2024-02-04T07:54:54;1.77;;;0.68;;
51718;SDS011;37795;53.236;5.704;2024-02-04T07:57:19;1.80;;;0.83;;
51718;SDS011;37795;53.236;5.704;2024-02-04T07:59:45;1.60;;;0.60;;
51718;SDS011;37795;53.236;5.704;2024-02-04T08:02:11;2.07;;;0.70;;
51718;SDS011;37795;53.236;5.704;2024-02-04T08:04:39;1.92;;;0.55;;
51718;SDS011;37795;53.236;5.704;2024-02-04T08:07:06;1.15;;;0.50;;
51718;SDS011;37795;53.236;5.704;2024-02-04T08:09:32;1.53;;;0.77;;
51718;SDS011;37795;53.236;5.704;2024-02-04T08:11:57;2.97;;;0.90;;
51718;SDS011;37795;53.236;5.704;2024-02-04T08:14:23;2.70;;;0.52;;
51718;SDS011;37795;53.236;5.704;2024-02-04T08:16:49;1.75;;;0.50;;
51718;SDS011;37795;53.236;5.704;2024-02-04T08:19:15;1.13;;;0.50;;
51718;SDS011;37795;53.236;5.704;2024-02-04T08:21:40;1.27;;;0.63;;
51718;SDS011;37795;53.236;5.704;2024-02-04T08:24:06;1.37;;;0.60;;
51718;SDS011;37795;53.236;5.704;2024-02-04T08:26:32;1.98;;;0.55;;
51718;SDS011;37795;53.236;5.704;2024-02-04T08:28:58;1.70;;;0.50;;
51718;SDS011;37795;53.236;5.704;2024-02-04T08:31:24;1.77;;;0.60;;
51718;SDS011;37795;53.236;5.704;2024-02-04T08:33:50;1.70;;;0.60;;
51718;SDS011;37795;53.236;5.704;2024-02-04T08:36:17;1.60;;;0.60;;
51718;SDS011;37795;53.236;5.704;2024-02-04T08:38:44;1.35;;;0.50;;
51718;SDS011;37795;53.236;5.704;2024-02-04T08:41:09;2.58;;;0.80;;
51718;SDS011;37795;53.236;5.704;2024-02-04T08:43:35;2.17;;;0.63;;
51718;SDS011;37795;53.236;5.704;2024-02-04T08:46:01;1.80;;;0.50;;
51718;SDS011;37795;53.236;5.704;2024-02-04T08:48:27;2.20;;;0.70;;
51718;SDS011;37795;53.236;5.704;2024-02-04T08:50:52;2.43;;;0.60;;
51718;SDS011;37795;53.236;5.704;2024-02-04T08:53:20;2.10;;;0.70;;
51718;SDS011;37795;53.236;5.704;2024-02-04T08:55:46;1.52;;;0.70;;
51718;SDS011;37795;53.236;5.704;2024-02-04T08:58:12;1.40;;;0.73;;
51718;SDS011;37795;53.236;5.704;2024-02-04T09:00:38;2.08;;;0.52;;
51718;SDS011;37795;53.236;5.704;2024-02-04T09:03:03;3.03;;;0.52;;
51718;SDS011;37795;53.236;5.704;2024-02-04T09:05:29;2.03;;;0.70;;
51718;SDS011;37795;53.236;5.704;2024-02-04T09:07:55;2.83;;;0.70;;
51718;SDS011;37795;53.236;5.704;2024-02-04T09:10:21;1.60;;;0.57;;
51718;SDS011;37795;53.236;5.704;2024-02-04T09:12:47;3.03;;;0.80;;
51718;SDS011;37795;53.236;5.704;2024-02-04T09:15:13;1.57;;;0.60;;
51718;SDS011;37795;53.236;5.704;2024-02-04T09:17:38;1.75;;;0.47;;
51718;SDS011;37795;53.236;5.704;2024-02-04T09:20:05;1.88;;;0.70;;
51718;SDS011;37795;53.236;5.704;2024-02-04T09:22:31;3.30;;;0.60;;
51718;SDS011;37795;53.236;5.704;2024-02-04T09:24:56;1.98;;;0.70;;
51718;SDS011;37795;53.236;5.704;2024-02-04T09:27:22;1.50;;;0.60;;
51718;SDS011;37795;53.236;5.704;2024-02-04T09:29:48;1.67;;;0.70;;
51718;SDS011;37795;53.236;5.704;2024-02-04T09:32:14;1.65;;;0.50;;
51718;SDS011;37795;53.236;5.704;2024-02-04T09:34:39;1.88;;;0.50;;
51718;SDS011;37795;53.236;5.704;2024-02-04T09:37:05;1.63;;;0.60;;
51718;SDS011;37795;53.236;5.704;2024-02-04T09:39:32;1.83;;;0.52;;
51718;SDS011;37795;53.236;5.704;2024-02-04T09:41:57;1.55;;;0.50;;
51718;SDS011;37795;53.236;5.704;2024-02-04T09:44:24;1.60;;;0.43;;
51718;SDS011;37795;53.236;5.704;2024-02-04T09:46:50;2.25;;;0.60;;
51718;SDS011;37795;53.236;5.704;2024-02-04T09:49:17;1.45;;;0.40;;
51718;SDS011;37795;53.236;5.704;2024-02-04T09:51:43;2.53;;;0.55;;
51718;SDS011;37795;53.236;5.704;2024-02-04T09:54:10;1.25;;;0.50;;
51718;SDS011;37795;53.236;5.704;2024-02-04T09:56:37;2.05;;;0.52;;
51718;SDS011;37795;53.236;5.704;2024-02-04T09:59:03;2.13;;;0.80;;
51718;SDS011;37795;53.236;5.704;2024-02-04T10:01:30;2.30;;;0.63;;
51718;SDS011;37795;53.236;5.704;2024-02-04T10:03:56;1.85;;;0.70;;
51718;SDS011;37795;53.236;5.704;2024-02-04T10:06:23;1.52;;;0.65;;
51718;SDS011;37795;53.236;5.704;2024-02-04T10:08:49;1.20;;;0.60;;
51718;SDS011;37795;53.236;5.704;2024-02-04T10:11:14;2.10;;;0.60;;
51718;SDS011;37795;53.236;5.704;2024-02-04T10:13:47;1.75;;;0.60;;
51718;SDS011;37795;53.236;5.704;2024-02-04T10:16:14;1.40;;;0.60;;
51718;SDS011;37795;53.236;5.704;2024-02-04T10:18:46;1.30;;;0.67;;
51718;SDS011;37795;53.236;5.704;2024-02-04T10:21:17;1.80;;;0.55;;
51718;SDS011;37795;53.236;5.704;2024-02-04T10:23:44;1.83;;;0.60;;
51718;SDS011;37795;53.236;5.704;2024-02-04T10:26:13;2.13;;;0.50;;
51718;SDS011;37795;53.236;5.704;2024-02-04T10:28:39;2.30;;;0.77;;
51718;SDS011;37795;53.236;5.704;2024-02-04T10:31:08;1.27;;;0.45;;
51718;SDS011;37795;53.236;5.704;2024-02-04T10:33:34;1.98;;;0.82;;
51718;SDS011;37795;53.236;5.704;2024-02-04T10:36:00;1.77;;;0.68;;
51718;SDS011;37795;53.236;5.704;2024-02-04T10:38:26;1.50;;;0.60;;
51718;SDS011;37795;53.236;5.704;2024-02-04T10:40:53;2.15;;;0.50;;
51718;SDS011;37795;53.236;5.704;2024-02-04T10:43:20;2.20;;;0.70;;
51718;SDS011;37795;53.236;5.704;2024-02-04T10:51:44;1.77;;;0.40;;
51718;SDS011;37795;53.236;5.704;2024-02-04T10:54:11;0.82;;;0.30;;
51718;SDS011;37795;53.236;5.704;2024-02-04T10:56:44;1.40;;;0.30;;
51718;SDS011;37795;53.236;5.704;2024-02-04T10:59:17;1.77;;;0.70;;
51718;SDS011;37795;53.236;5.704;2024-02-04T11:01:45;1.85;;;0.60;;
51718;SDS011;37795;53.236;5.704;2024-02-04T11:04:14;0.63;;;0.40;;
51718;SDS011;37795;53.236;5.704;2024-02-04T11:06:42;1.73;;;0.47;;
51718;SDS011;37795;53.236;5.704;2024-02-04T11:09:09;1.83;;;0.60;;
51718;SDS011;37795;53.236;5.704;2024-02-04T11:11:37;2.13;;;0.40;;
51718;SDS011;37795;53.236;5.704;2024-02-04T11:14:04;1.88;;;0.40;;
51718;SDS011;37795;53.236;5.704;2024-02-04T11:19:20;2.47;;;0.47;;
51718;SDS011;37795;53.236;5.704;2024-02-04T11:27:37;2.35;;;0.50;;
51718;SDS011;37795;53.236;5.704;2024-02-04T11:30:03;2.40;;;0.70;;
51718;SDS011;37795;53.236;5.704;2024-02-04T11:32:30;1.10;;;0.40;;
51718;SDS011;37795;53.236;5.704;2024-02-04T11:34:55;1.25;;;0.47;;
51718;SDS011;37795;53.236;5.704;2024-02-04T11:37:26;1.40;;;0.40;;
51718;SDS011;37795;53.236;5.704;2024-02-04T11:39:52;1.23;;;0.45;;
51718;SDS011;37795;53.236;5.704;2024-02-04T11:42:22;1.25;;;0.30;;
51718;SDS011;37795;53.236;5.704;2024-02-04T11:44:48;2.92;;;0.63;;
51718;SDS011;37795;53.236;5.704;2024-02-04T11:47:26;1.70;;;0.40;;
51718;SDS011;37795;53.236;5.704;2024-02-04T11:49:58;1.13;;;0.50;;
51718;SDS011;37795;53.236;5.704;2024-02-04T11:52:26;1.83;;;0.65;;
51718;SDS011;37795;53.236;5.704;2024-02-04T11:54:53;2.25;;;0.50;;
51718;SDS011;37795;53.236;5.704;2024-02-04T11:57:19;2.00;;;0.70;;
51718;SDS011;37795;53.236;5.704;2024-02-04T11:59:45;2.00;;;0.40;;
51718;SDS011;37795;53.236;5.704;2024-02-04T12:02:12;1.77;;;0.50;;
51718;SDS011;37795;53.236;5.704;2024-02-04T12:04:41;2.15;;;0.60;;
51718;SDS011;37795;53.236;5.704;2024-02-04T12:07:06;1.58;;;0.40;;
51718;SDS011;37795;53.236;5.704;2024-02-04T12:09:34;2.13;;;0.50;;
51718;SDS011;37795;53.236;5.704;2024-02-04T12:12:00;1.85;;;0.60;;
51718;SDS011;37795;53.236;5.704;2024-02-04T12:14:28;2.67;;;0.95;;
51718;SDS011;37795;53.236;5.704;2024-02-04T12:16:57;1.48;;;0.57;;
51718;SDS011;37795;53.236;5.704;2024-02-04T12:19:23;1.63;;;0.40;;
51718;SDS011;37795;53.236;5.704;2024-02-04T12:21:49;1.65;;;0.50;;
51718;SDS011;37795;53.236;5.704;2024-02-04T12:24:15;1.38;;;0.45;;
51718;SDS011;37795;53.236;5.704;2024-02-04T12:26:41;2.00;;;0.50;;
51718;SDS011;37795;53.236;5.704;2024-02-04T12:29:07;1.88;;;0.40;;
51718;SDS011;37795;53.236;5.704;2024-02-04T12:31:33;1.58;;;0.65;;
51718;SDS011;37795;53.236;5.704;2024-02-04T12:33:59;2.88;;;0.90;;
51718;SDS011;37795;53.236;5.704;2024-02-04T12:36:26;4.05;;;1.40;;
51718;SDS011;37795;53.236;5.704;2024-02-04T12:38:53;2.50;;;1.65;;
51718;SDS011;37795;53.236;5.704;2024-02-04T12:41:23;4.35;;;1.80;;
51718;SDS011;37795;53.236;5.704;2024-02-04T12:43:50;3.65;;;1.98;;
51718;SDS011;37795;53.236;5.704;2024-02-04T12:46:17;4.03;;;2.25;;
51718;SDS011;37795;53.236;5.704;2024-02-04T12:48:56;5.50;;;2.92;;
51718;SDS011;37795;53.236;5.704;2024-02-04T12:51:29;6.53;;;3.53;;
51718;SDS011;37795;53.236;5.704;2024-02-04T12:54:08;6.72;;;3.40;;
51718;SDS011;37795;53.236;5.704;2024-02-04T12:56:54;7.32;;;3.75;;
51718;SDS011;37795;53.236;5.704;2024-02-04T12:59:29;8.75;;;4.78;;
51718;SDS011;37795;53.236;5.704;2024-02-04T13:02:00;5.88;;;3.92;;
51718;SDS011;37795;53.236;5.704;2024-02-04T13:04:37;7.35;;;3.80;;
51718;SDS011;37795;53.236;5.704;2024-02-04T13:07:10;9.27;;;4.35;;
51718;SDS011;37795;53.236;5.704;2024-02-04T13:09:41;10.38;;;4.85;;
51718;SDS011;37795;53.236;5.704;2024-02-04T13:12:09;9.27;;;4.88;;
51718;SDS011;37795;53.236;5.704;2024-02-04T13:14:36;9.60;;;5.22;;
51718;SDS011;37795;53.236;5.704;2024-02-04T13:17:02;10.18;;;5.00;;
51718;SDS011;37795;53.236;5.704;2024-02-04T13:19:33;7.43;;;4.95;;
51718;SDS011;37795;53.236;5.704;2024-02-04T13:21:59;11.80;;;5.75;;
51718;SDS011;37795;53.236;5.704;2024-02-04T13:24:25;10.93;;;5.80;;
51718;SDS011;37795;53.236;5.704;2024-02-04T13:26:51;11.02;;;6.22;;
51718;SDS011;37795;53.236;5.704;2024-02-04T13:29:17;11.57;;;6.50;;
51718;SDS011;37795;53.236;5.704;2024-02-04T13:31:42;9.77;;;6.18;;
51718;SDS011;37795;53.236;5.704;2024-02-04T13:34:08;14.02;;;6.63;;
51718;SDS011;37795;53.236;5.704;2024-02-04T13:36:34;9.40;;;5.85;;
51718;SDS011;37795;53.236;5.704;2024-02-04T13:38:59;10.27;;;6.47;;
51718;SDS011;37795;53.236;5.704;2024-02-04T13:41:25;10.65;;;6.97;;
51718;SDS011;37795;53.236;5.704;2024-02-04T13:43:51;14.18;;;7.32;;
51718;SDS011;37795;53.236;5.704;2024-02-04T13:46:17;13.60;;;6.63;;
51718;SDS011;37795;53.236;5.704;2024-02-04T13:48:43;12.10;;;6.82;;
51718;SDS011;37795;53.236;5.704;2024-02-04T13:51:08;11.98;;;5.82;;
51718;SDS011;37795;53.236;5.704;2024-02-04T13:53:34;11.73;;;6.40;;
51718;SDS011;37795;53.236;5.704;2024-02-04T13:56:00;13.13;;;6.75;;
51718;SDS011;37795;53.236;5.704;2024-02-04T13:58:26;10.75;;;6.00;;
51718;SDS011;37795;53.236;5.704;2024-02-04T14:00:52;11.02;;;6.45;;
51718;SDS011;37795;53.236;5.704;2024-02-04T14:03:18;12.05;;;7.00;;
51718;SDS011;37795;53.236;5.704;2024-02-04T14:05:44;12.57;;;6.53;;
51718;SDS011;37795;53.236;5.704;2024-02-04T14:08:09;13.43;;;7.20;;
51718;SDS011;37795;53.236;5.704;2024-02-04T14:10:35;11.30;;;7.15;;
51718;SDS011;37795;53.236;5.704;2024-02-04T14:13:01;13.45;;;7.43;;
51718;SDS011;37795;53.236;5.704;2024-02-04T14:15:27;14.27;;;7.20;;
51718;SDS011;37795;53.236;5.704;2024-02-04T14:17:53;14.45;;;7.20;;
51718;SDS011;37795;53.236;5.704;2024-02-04T14:20:19;12.32;;;7.10;;
51718;SDS011;37795;53.236;5.704;2024-02-04T14:22:45;11.40;;;7.22;;
51718;SDS011;37795;53.236;5.704;2024-02-04T14:25:11;13.55;;;7.50;;
51718;SDS011;37795;53.236;5.704;2024-02-04T14:27:36;13.77;;;6.85;;
51718;SDS011;37795;53.236;5.704;2024-02-04T14:30:04;11.73;;;7.75;;
51718;SDS011;37795;53.236;5.704;2024-02-04T14:32:32;14.82;;;7.68;;
51718;SDS011;37795;53.236;5.704;2024-02-04T14:34:57;14.27;;;7.78;;
51718;SDS011;37795;53.236;5.704;2024-02-04T14:37:23;17.63;;;10.82;;
51718;SDS011;37795;53.236;5.704;2024-02-04T14:39:49;17.50;;;8.80;;
51718;SDS011;37795;53.236;5.704;2024-02-04T14:42:15;14.57;;;8.75;;
51718;SDS011;37795;53.236;5.704;2024-02-04T14:47:09;15.73;;;8.15;;
51718;SDS011;37795;53.236;5.704;2024-02-04T14:49:36;13.52;;;8.18;;
51718;SDS011;37795;53.236;5.704;2024-02-04T14:52:02;14.73;;;8.07;;
51718;SDS011;37795;53.236;5.704;2024-02-04T14:54:29;15.77;;;8.73;;
51718;SDS011;37795;53.236;5.704;2024-02-04T14:56:54;14.30;;;8.60;;
51718;SDS011;37795;53.236;5.704;2024-02-04T14:59:20;15.65;;;8.30;;
51718;SDS011;37795;53.236;5.704;2024-02-04T15:01:46;13.60;;;8.77;;
51718;SDS011;37795;53.236;5.704;2024-02-04T15:04:12;16.05;;;8.85;;
51718;SDS011;37795;53.236;5.704;2024-02-04T15:06:40;14.50;;;8.38;;
51718;SDS011;37795;53.236;5.704;2024-02-04T15:09:06;16.75;;;9.20;;
51718;SDS011;37795;53.236;5.704;2024-02-04T15:11:31;17.88;;;11.02;;
51718;SDS011;37795;53.236;5.704;2024-02-04T15:13:59;17.27;;;10.80;;
51718;SDS011;37795;53.236;5.704;2024-02-04T15:16:25;16.98;;;11.35;;